WXM80 ListenWXM80 Stop

You find our weather info also at:

UK Metoffice

WeatherCloud

Weather Underground

Northeastern Weather Network

AWEKAS

Citizen Weather Observer Program (CWOP)

HAMweather, WeatherForYou, PWS Weather


Weather Underground History page Text

Daily Summary for September 24, 2017 Units:  English    Metric   Both
« Previous Day
Next Day »
Daily Weekly Monthly Yearly Custom
  High: Low: Average:
Temperature: 90.9 °F 62.6 °F 74.3 °F
Dew Point: 71.2 °F 60.7 °F 65 °F
Humidity: 97 % 47 % 75 %
Wind Speed: 3.9 mph 0.0 mph 0.3 mph
Wind Gust: 5.8 mph - -
Wind:- - SSE
Pressure: 30.01 in 29.93 in -
Precipitation: 0.00 in    
Historical Graphs
 
 
Tabular Data for September 24, 2017
Time Temperature Dew Point Pressure Wind Wind Speed Wind Gust Humidity Rainfall Rate (Hourly)
00:01 66.0 °F 61.7 °F 29.97 in Calm     86 % 0.00 in
00:06 66.0 °F 62.0 °F 29.97 in Calm     87 % 0.00 in
00:11 66.1 °F 62.4 °F 29.97 in Calm   1.0 mph 88 % 0.00 in
00:16 66.1 °F 62.8 °F 29.97 in Calm   1.0 mph 89 % 0.00 in
00:20 66.1 °F 62.8 °F 29.97 in Calm     89 % 0.00 in
00:26 66.0 °F 62.3 °F 29.97 in Calm     88 % 0.00 in
00:30 66.0 °F 62.3 °F 29.97 in Calm     88 % 0.00 in
00:35 65.9 °F 62.2 °F 29.97 in Calm     88 % 0.00 in
00:40 65.9 °F 62.2 °F 29.97 in Calm     88 % 0.00 in
00:45 65.8 °F 62.1 °F 29.97 in Calm     88 % 0.00 in
00:50 65.8 °F 62.1 °F 29.97 in Calm     88 % 0.00 in
00:55 65.7 °F 62.0 °F 29.97 in Calm     88 % 0.00 in
01:00 65.6 °F 61.9 °F 29.97 in Calm     88 % 0.00 in
01:05 65.5 °F 61.9 °F 29.97 in Calm     88 % 0.00 in
01:10 65.4 °F 61.8 °F 29.97 in Calm     88 % 0.00 in
01:15 65.3 °F 62.0 °F 29.97 in Calm     89 % 0.00 in
01:20 65.2 °F 61.9 °F 29.97 in Calm     89 % 0.00 in
01:25 65.2 °F 61.9 °F 29.97 in Calm     89 % 0.00 in
01:30 65.0 °F 61.7 °F 29.97 in Calm     89 % 0.00 in
01:35 65.0 °F 61.7 °F 29.97 in Calm     89 % 0.00 in
01:40 64.9 °F 61.6 °F 29.97 in Calm     89 % 0.00 in
01:46 64.8 °F 61.8 °F 29.96 in Calm     90 % 0.00 in
01:51 64.8 °F 61.8 °F 29.97 in Calm     90 % 0.00 in
01:56 64.7 °F 61.7 °F 29.96 in Calm     90 % 0.00 in
02:01 64.6 °F 61.9 °F 29.97 in Calm     91 % 0.00 in
02:06 64.6 °F 61.9 °F 29.97 in Calm     91 % 0.00 in
02:11 64.5 °F 61.8 °F 29.97 in Calm     91 % 0.00 in
02:16 64.5 °F 61.8 °F 29.96 in Calm     91 % 0.00 in
02:21 64.4 °F 62.0 °F 29.97 in Calm   1.2 mph 92 % 0.00 in
02:26 64.4 °F 62.0 °F 29.97 in Calm     92 % 0.00 in
02:31 64.3 °F 61.9 °F 29.97 in Calm     92 % 0.00 in
02:35 64.3 °F 61.9 °F 29.97 in Calm   1.2 mph 92 % 0.00 in
02:45 64.1 °F 61.7 °F 29.97 in NNW 0.4 mph 1.2 mph 92 % 0.00 in
02:51 64.1 °F 61.7 °F 29.96 in Calm     92 % 0.00 in
02:56 64.1 °F 62.0 °F 29.97 in Calm   2.0 mph 93 % 0.00 in
03:01 64.1 °F 62.0 °F 29.97 in Calm     93 % 0.00 in
03:06 64.1 °F 62.0 °F 29.97 in NNW 0.2 mph 1.2 mph 93 % 0.00 in
03:11 64.1 °F 62.0 °F 29.97 in Calm   1.2 mph 93 % 0.00 in
03:16 64.1 °F 62.0 °F 29.97 in Calm     93 % 0.00 in
03:21 64.1 °F 62.0 °F 29.97 in Calm     93 % 0.00 in
03:26 64.1 °F 62.0 °F 29.97 in NNW 0.1 mph 1.2 mph 93 % 0.00 in
03:31 64.1 °F 62.3 °F 29.97 in Calm   1.2 mph 94 % 0.00 in
03:36 64.1 °F 62.3 °F 29.97 in Calm     94 % 0.00 in
03:41 64.1 °F 62.3 °F 29.97 in Calm     94 % 0.00 in
03:46 64.0 °F 62.2 °F 29.97 in Calm     94 % 0.00 in
03:51 64.0 °F 61.9 °F 29.97 in NNW 0.1 mph 1.2 mph 93 % 0.00 in
03:56 63.9 °F 61.8 °F 29.97 in Calm     93 % 0.00 in
04:01 63.9 °F 61.8 °F 29.97 in Calm     93 % 0.00 in
04:06 63.8 °F 61.7 °F 29.97 in Calm     93 % 0.00 in
04:11 63.8 °F 61.7 °F 29.97 in Calm     93 % 0.00 in
04:16 63.7 °F 61.6 °F 29.97 in Calm     93 % 0.00 in
04:21 63.7 °F 61.6 °F 29.97 in Calm     93 % 0.00 in
04:27 63.6 °F 61.5 °F 29.97 in Calm     93 % 0.00 in
04:32 63.5 °F 61.4 °F 29.98 in Calm     93 % 0.00 in
04:37 63.4 °F 61.3 °F 29.98 in Calm   1.0 mph 93 % 0.00 in
04:42 63.4 °F 61.3 °F 29.98 in Calm     93 % 0.00 in
04:47 63.3 °F 61.2 °F 29.98 in Calm     93 % 0.00 in
04:52 63.2 °F 61.1 °F 29.97 in Calm     93 % 0.00 in
04:57 63.1 °F 61.0 °F 29.98 in Calm     93 % 0.00 in
05:02 63.1 °F 61.0 °F 29.98 in Calm     93 % 0.00 in
05:07 63.0 °F 60.9 °F 29.97 in Calm     93 % 0.00 in
05:12 63.0 °F 60.9 °F 29.98 in Calm     93 % 0.00 in
05:17 62.9 °F 60.8 °F 29.98 in Calm   1.2 mph 93 % 0.00 in
05:22 62.9 °F 60.8 °F 29.98 in Calm     93 % 0.00 in
05:27 62.8 °F 60.7 °F 29.98 in Calm     93 % 0.00 in
05:32 62.8 °F 60.7 °F 29.98 in Calm   1.2 mph 93 % 0.00 in
05:37 62.8 °F 61.0 °F 29.98 in NNW 0.4 mph 2.3 mph 94 % 0.00 in
05:42 62.7 °F 60.9 °F 29.98 in Calm     94 % 0.00 in
05:47 62.7 °F 60.9 °F 29.98 in Calm     94 % 0.00 in
05:52 62.7 °F 60.9 °F 29.98 in Calm     94 % 0.00 in
05:57 62.7 °F 60.9 °F 29.98 in Calm     94 % 0.00 in
06:02 62.6 °F 60.8 °F 29.99 in Calm     94 % 0.00 in
06:07 62.6 °F 60.8 °F 29.98 in Calm     94 % 0.00 in
06:12 62.7 °F 60.9 °F 29.99 in Calm     94 % 0.00 in
06:18 62.6 °F 60.8 °F 29.99 in Calm     94 % 0.00 in
06:22 62.6 °F 60.8 °F 29.99 in Calm     94 % 0.00 in
06:28 62.6 °F 60.8 °F 29.99 in Calm     94 % 0.00 in
06:33 62.6 °F 60.8 °F 29.99 in Calm     94 % 0.00 in
06:38 62.6 °F 60.8 °F 29.99 in Calm   1.2 mph 94 % 0.00 in
06:43 62.6 °F 60.8 °F 29.99 in Calm     94 % 0.00 in
06:48 62.6 °F 60.8 °F 30.00 in Calm     94 % 0.00 in
06:53 62.6 °F 61.1 °F 30.00 in Calm     95 % 0.00 in
06:58 62.6 °F 61.1 °F 30.00 in Calm     95 % 0.00 in
07:03 62.6 °F 61.1 °F 30.00 in Calm     95 % 0.00 in
07:08 62.6 °F 61.1 °F 30.00 in Calm     95 % 0.00 in
07:13 62.6 °F 61.1 °F 30.01 in Calm     95 % 0.00 in
07:18 62.7 °F 61.2 °F 30.01 in Calm     95 % 0.00 in
07:23 62.8 °F 61.3 °F 30.00 in Calm     95 % 0.00 in
07:28 62.9 °F 61.4 °F 30.01 in Calm     95 % 0.00 in
07:33 63.1 °F 61.9 °F 30.01 in Calm     96 % 0.00 in
07:38 63.4 °F 62.2 °F 30.01 in Calm     96 % 0.00 in
07:43 63.5 °F 62.3 °F 30.01 in Calm     96 % 0.00 in
07:48 63.8 °F 62.9 °F 30.01 in Calm     97 % 0.00 in
07:53 64.0 °F 63.1 °F 30.01 in Calm     97 % 0.00 in
07:58 64.3 °F 63.4 °F 30.01 in Calm     97 % 0.00 in
08:03 64.5 °F 63.6 °F 30.01 in Calm     97 % 0.00 in
08:08 64.9 °F 64.0 °F 30.01 in Calm   1.2 mph 97 % 0.00 in
08:13 65.2 °F 64.3 °F 30.01 in Calm     97 % 0.00 in
08:18 65.5 °F 64.6 °F 30.01 in NNW 0.1 mph 1.2 mph 97 % 0.00 in
08:23 65.9 °F 65.0 °F 30.01 in NNW 0.6 mph 2.3 mph 97 % 0.00 in
08:28 66.1 °F 65.2 °F 30.01 in NNW 0.2 mph 1.2 mph 97 % 0.00 in
08:33 66.4 °F 65.5 °F 30.01 in NNW 0.1 mph 1.2 mph 97 % 0.00 in
08:38 66.7 °F 65.8 °F 30.01 in Calm   1.2 mph 97 % 0.00 in
08:43 66.9 °F 66.0 °F 30.01 in North 2.1 mph 4.6 mph 97 % 0.00 in
08:48 67.0 °F 66.1 °F 30.01 in North 0.2 mph 3.5 mph 97 % 0.00 in
08:53 67.0 °F 66.1 °F 30.01 in North 0.3 mph 2.3 mph 97 % 0.00 in
08:58 67.2 °F 66.0 °F 30.01 in North 0.4 mph 1.2 mph 96 % 0.00 in
09:03 67.4 °F 66.2 °F 30.01 in NNE 0.4 mph 2.3 mph 96 % 0.00 in
09:15 68.1 °F 66.3 °F 30.01 in NNE 1.0 mph 3.0 mph 94 % 0.00 in
09:20 68.4 °F 66.0 °F 30.01 in NNE 0.6 mph 2.3 mph 92 % 0.00 in
09:25 68.8 °F 65.4 °F 30.01 in Calm   1.2 mph 89 % 0.00 in
09:30 69.2 °F 65.5 °F 30.01 in NNE 1.0 mph 3.5 mph 88 % 0.00 in
09:35 69.5 °F 65.5 °F 30.01 in NNE 0.2 mph 1.2 mph 87 % 0.00 in
09:40 69.8 °F 65.4 °F 30.00 in Calm     86 % 0.00 in
09:45 70.1 °F 65.7 °F 30.00 in Calm     86 % 0.00 in
09:50 70.4 °F 65.7 °F 30.00 in Calm   1.2 mph 85 % 0.00 in
09:55 70.7 °F 65.6 °F 30.00 in NNE 1.5 mph 3.5 mph 84 % 0.00 in
10:00 71.0 °F 65.6 °F 30.00 in NE 0.1 mph 1.0 mph 83 % 0.00 in
10:05 71.3 °F 65.9 °F 30.00 in North 0.1 mph 3.5 mph 83 % 0.00 in
10:10 71.6 °F 65.8 °F 30.00 in Calm   2.3 mph 82 % 0.00 in
10:15 71.9 °F 65.8 °F 30.01 in NNW 0.7 mph 2.3 mph 81 % 0.00 in
10:20 72.3 °F 66.8 °F 30.00 in NNW 0.1 mph 1.2 mph 83 % 0.00 in
10:26 72.7 °F 67.2 °F 30.01 in Calm   2.0 mph 83 % 0.00 in
10:31 73.1 °F 66.9 °F 30.01 in Calm   3.0 mph 81 % 0.00 in
10:36 73.4 °F 66.4 °F 30.01 in Calm   3.0 mph 79 % 0.00 in
10:41 73.7 °F 66.0 °F 30.00 in Calm   2.0 mph 77 % 0.00 in
10:46 74.0 °F 66.3 °F 30.00 in NNW 1.0 mph 3.0 mph 77 % 0.00 in
10:51 74.3 °F 66.6 °F 30.00 in NNW 1.0 mph 3.0 mph 77 % 0.00 in
10:56 74.5 °F 66.5 °F 30.00 in North 2.0 mph 5.0 mph 76 % 0.00 in
11:01 74.8 °F 66.7 °F 30.00 in NNE 0.1 mph 3.5 mph 76 % 0.00 in
11:06 75.2 °F 67.1 °F 30.00 in NW 0.3 mph 1.2 mph 76 % 0.00 in
11:11 75.6 °F 67.9 °F 30.00 in NE 0.6 mph 2.3 mph 77 % 0.00 in
11:16 76.4 °F 69.0 °F 30.00 in NE 0.2 mph 1.2 mph 78 % 0.00 in
11:21 77.5 °F 68.9 °F 30.00 in NNE 0.9 mph 3.0 mph 75 % 0.00 in
11:26 78.5 °F 69.1 °F 30.00 in North 2.1 mph 3.5 mph 73 % 0.00 in
11:36 81.3 °F 70.6 °F 30.00 in NW 0.4 mph 1.2 mph 70 % 0.00 in
11:41 82.5 °F 70.9 °F 30.00 in NW 0.5 mph 2.3 mph 68 % 0.00 in
11:46 83.7 °F 71.1 °F 30.00 in NNW 0.6 mph 3.0 mph 66 % 0.00 in
11:51 85.0 °F 71.0 °F 30.00 in NNE 1.6 mph 3.5 mph 63 % 0.00 in
11:56 85.9 °F 70.9 °F 30.00 in NNW 1.8 mph 3.5 mph 61 % 0.00 in
12:01 86.7 °F 70.2 °F 30.00 in North 1.0 mph 3.0 mph 58 % 0.00 in
12:06 87.2 °F 69.1 °F 30.00 in NE 0.6 mph 3.5 mph 55 % 0.00 in
12:11 87.8 °F 71.2 °F 30.00 in NE 0.5 mph 1.0 mph 58 % 0.00 in
12:17 88.1 °F 69.9 °F 30.00 in Calm   2.3 mph 55 % 0.00 in
12:22 88.5 °F 70.8 °F 30.00 in NNE 1.6 mph 3.5 mph 56 % 0.00 in
12:27 88.7 °F 70.5 °F 30.00 in ENE 0.1 mph 1.2 mph 55 % 0.00 in
12:32 88.8 °F 70.0 °F 29.99 in North 1.8 mph 1.8 mph 54 % 0.00 in
12:37 89.0 °F 69.1 °F 29.99 in North 0.4 mph 2.0 mph 52 % 0.00 in
12:42 89.2 °F 70.4 °F 29.99 in North 0.2 mph 1.2 mph 54 % 0.00 in
12:47 89.3 °F 70.5 °F 29.99 in NE 0.1 mph 3.5 mph 54 % 0.00 in
12:52 89.4 °F 70.0 °F 29.99 in Calm     53 % 0.00 in
12:57 89.7 °F 69.7 °F 29.99 in ENE 0.4 mph 1.2 mph 52 % 0.00 in
13:02 89.8 °F 69.8 °F 29.99 in NE 0.6 mph 2.0 mph 52 % 0.00 in
13:07 90.1 °F 70.1 °F 29.99 in ENE 1.1 mph 2.0 mph 52 % 0.00 in
13:12 90.3 °F 69.1 °F 29.99 in NE 3.2 mph 4.0 mph 50 % 0.00 in
13:17 90.1 °F 69.5 °F 29.98 in Calm   1.2 mph 51 % 0.00 in
13:22 90.1 °F 69.5 °F 29.98 in Calm   1.2 mph 51 % 0.00 in
13:27 90.1 °F 67.8 °F 29.98 in NE 0.1 mph 1.2 mph 48 % 0.00 in
13:32 90.1 °F 68.4 °F 29.98 in NE 0.2 mph 2.3 mph 49 % 0.00 in
13:37 90.0 °F 68.9 °F 29.98 in Calm   1.2 mph 50 % 0.00 in
13:42 90.0 °F 69.4 °F 29.98 in NE 1.8 mph 3.5 mph 51 % 0.00 in
13:47 89.9 °F 69.9 °F 29.98 in NE 0.6 mph 2.3 mph 52 % 0.00 in
13:52 90.0 °F 70.0 °F 29.98 in NNW 0.2 mph 1.2 mph 52 % 0.00 in
13:57 90.0 °F 68.3 °F 29.98 in Calm     49 % 0.00 in
14:02 90.1 °F 69.5 °F 29.97 in NNW 0.1 mph 1.2 mph 51 % 0.00 in
14:07 90.1 °F 70.1 °F 29.97 in Calm   1.2 mph 52 % 0.00 in
14:12 90.1 °F 69.0 °F 29.97 in Calm   1.2 mph 50 % 0.00 in
14:17 90.2 °F 70.8 °F 29.97 in Calm   1.2 mph 53 % 0.00 in
14:22 90.4 °F 70.4 °F 29.97 in SSE 2.4 mph 4.6 mph 52 % 0.00 in
14:27 90.4 °F 68.0 °F 29.97 in SE 1.8 mph 3.5 mph 48 % 0.00 in
14:32 90.5 °F 69.9 °F 29.97 in Calm   1.0 mph 51 % 0.00 in
14:37 90.6 °F 68.8 °F 29.97 in Calm   1.2 mph 49 % 0.00 in
14:43 90.6 °F 68.2 °F 29.97 in SE 0.1 mph   48 % 0.00 in
14:48 90.7 °F 67.7 °F 29.97 in Calm     47 % 0.00 in
14:53 90.8 °F 70.2 °F 29.96 in Calm   1.2 mph 51 % 0.00 in
14:58 90.8 °F 69.6 °F 29.96 in Calm   1.2 mph 50 % 0.00 in
15:03 90.9 °F 69.1 °F 29.96 in SE 0.1 mph 1.2 mph 49 % 0.00 in
15:08 90.9 °F 70.3 °F 29.96 in Calm   1.2 mph 51 % 0.00 in
15:18 90.9 °F 69.1 °F 29.96 in NE 0.9 mph 2.3 mph 49 % 0.00 in
15:23 90.8 °F 69.0 °F 29.96 in NE 0.4 mph 1.2 mph 49 % 0.00 in
15:28 90.5 °F 69.3 °F 29.95 in NE 1.5 mph 3.5 mph 50 % 0.00 in
15:33 90.1 °F 68.4 °F 29.95 in ENE 1.0 mph 2.3 mph 49 % 0.00 in
15:38 90.0 °F 70.0 °F 29.95 in Calm     52 % 0.00 in
15:43 90.0 °F 69.4 °F 29.95 in Calm   1.2 mph 51 % 0.00 in
15:48 90.0 °F 70.0 °F 29.95 in Calm   1.2 mph 52 % 0.00 in
15:53 90.0 °F 70.0 °F 29.95 in ESE 0.2 mph 1.2 mph 52 % 0.00 in
15:58 90.1 °F 69.0 °F 29.94 in Calm     50 % 0.00 in
16:03 90.0 °F 69.4 °F 29.94 in Calm     51 % 0.00 in
16:08 89.8 °F 68.7 °F 29.94 in Calm     50 % 0.00 in
16:13 89.6 °F 69.6 °F 29.94 in Calm   1.2 mph 52 % 0.00 in
16:19 89.7 °F 69.7 °F 29.94 in Calm     52 % 0.00 in
16:23 89.5 °F 69.5 °F 29.94 in Calm   1.2 mph 52 % 0.00 in
16:29 89.1 °F 69.7 °F 29.94 in ENE 0.5 mph 2.3 mph 53 % 0.00 in
16:34 88.9 °F 69.6 °F 29.94 in ENE 0.1 mph 1.2 mph 53 % 0.00 in
16:39 88.6 °F 70.4 °F 29.94 in Calm     55 % 0.00 in
16:44 88.4 °F 70.7 °F 29.94 in Calm     56 % 0.00 in
16:49 88.1 °F 69.9 °F 29.94 in ENE 0.4 mph 2.3 mph 55 % 0.00 in
16:54 87.9 °F 70.2 °F 29.94 in Calm     56 % 0.00 in
16:59 87.8 °F 68.0 °F 29.94 in SSE 3.9 mph 5.8 mph 52 % 0.00 in
17:04 87.4 °F 67.6 °F 29.94 in SE 3.6 mph 5.8 mph 52 % 0.00 in
17:09 87.0 °F 67.2 °F 29.93 in SE 1.3 mph 3.5 mph 52 % 0.00 in
17:14 86.5 °F 67.3 °F 29.93 in SE 1.2 mph 3.5 mph 53 % 0.00 in
17:19 86.2 °F 67.6 °F 29.93 in SE 1.2 mph 2.3 mph 54 % 0.00 in
17:24 86.0 °F 67.4 °F 29.93 in SE 0.2 mph 1.2 mph 54 % 0.00 in
17:29 85.7 °F 67.1 °F 29.93 in SE 1.9 mph 3.5 mph 54 % 0.00 in
17:35 85.3 °F 67.3 °F 29.93 in Calm   3.5 mph 55 % 0.00 in
17:45 84.7 °F 67.3 °F 29.94 in Calm     56 % 0.00 in
17:50 84.5 °F 67.6 °F 29.94 in Calm     57 % 0.00 in
17:55 84.2 °F 67.3 °F 29.94 in Calm     57 % 0.00 in
18:00 84.0 °F 67.1 °F 29.94 in Calm   1.2 mph 57 % 0.00 in
18:05 83.8 °F 67.9 °F 29.94 in Calm     59 % 0.00 in
18:10 83.6 °F 67.3 °F 29.94 in Calm     58 % 0.00 in
18:15 83.4 °F 67.6 °F 29.94 in Calm   1.0 mph 59 % 0.00 in
18:20 83.2 °F 67.4 °F 29.94 in Calm     59 % 0.00 in
18:25 82.8 °F 67.5 °F 29.94 in Calm   1.2 mph 60 % 0.00 in
18:30 82.5 °F 67.2 °F 29.94 in Calm     60 % 0.00 in
18:35 82.2 °F 66.9 °F 29.94 in Calm     60 % 0.00 in
18:40 81.8 °F 66.6 °F 29.94 in Calm     60 % 0.00 in
18:45 81.5 °F 66.3 °F 29.94 in Calm     60 % 0.00 in
18:50 81.2 °F 66.5 °F 29.94 in Calm   1.2 mph 61 % 0.00 in
18:55 80.8 °F 66.1 °F 29.94 in Calm     61 % 0.00 in
19:00 80.5 °F 66.3 °F 29.94 in Calm     62 % 0.00 in
19:05 80.1 °F 65.9 °F 29.94 in Calm     62 % 0.00 in
19:10 79.8 °F 66.1 °F 29.94 in Calm     63 % 0.00 in
19:15 79.5 °F 65.8 °F 29.94 in Calm   1.2 mph 63 % 0.00 in
19:20 79.2 °F 66.0 °F 29.94 in SE 0.1 mph   64 % 0.00 in
19:25 78.9 °F 66.1 °F 29.94 in Calm   1.2 mph 65 % 0.00 in
19:30 78.6 °F 65.8 °F 29.95 in SE 0.1 mph 1.2 mph 65 % 0.00 in
19:36 78.3 °F 66.0 °F 29.95 in Calm   1.2 mph 66 % 0.00 in
19:41 78.0 °F 65.7 °F 29.95 in Calm     66 % 0.00 in
19:46 77.7 °F 65.5 °F 29.96 in Calm   1.0 mph 66 % 0.00 in
19:50 77.5 °F 65.7 °F 29.95 in Calm   1.2 mph 67 % 0.00 in
19:56 77.2 °F 65.4 °F 29.95 in Calm   1.0 mph 67 % 0.00 in
20:01 76.9 °F 65.1 °F 29.96 in SE 0.1 mph 1.2 mph 67 % 0.00 in
20:06 76.6 °F 64.8 °F 29.95 in SE 0.2 mph 1.2 mph 67 % 0.00 in
20:16 76.1 °F 64.8 °F 29.95 in Calm   1.2 mph 68 % 0.00 in
20:19 76.0 °F 65.1 °F 29.96 in Calm   1.2 mph 69 % 0.00 in
20:24 75.8 °F 64.9 °F 29.96 in Calm   1.2 mph 69 % 0.00 in
20:29 75.6 °F 65.1 °F 29.95 in SE 0.4 mph 1.2 mph 70 % 0.00 in
20:34 75.4 °F 64.9 °F 29.95 in SE 0.6 mph 1.2 mph 70 % 0.00 in
20:39 75.2 °F 64.7 °F 29.96 in SE 0.2 mph 1.2 mph 70 % 0.00 in
20:44 74.9 °F 64.5 °F 29.96 in SE 0.5 mph 1.2 mph 70 % 0.00 in
20:49 74.7 °F 64.3 °F 29.96 in SE 0.8 mph 1.2 mph 70 % 0.00 in
20:54 74.5 °F 64.1 °F 29.96 in SE 0.3 mph 1.2 mph 70 % 0.00 in
20:59 74.3 °F 63.9 °F 29.96 in SE 0.3 mph 2.3 mph 70 % 0.00 in
21:04 74.2 °F 63.8 °F 29.97 in SE 0.1 mph 1.2 mph 70 % 0.00 in
21:09 74.0 °F 63.6 °F 29.97 in SE 0.5 mph 2.3 mph 70 % 0.00 in
21:14 73.8 °F 63.0 °F 29.97 in SW 0.3 mph 2.3 mph 69 % 0.00 in
21:19 73.7 °F 62.9 °F 29.97 in SW 1.5 mph 4.0 mph 69 % 0.00 in
21:23 73.6 °F 62.8 °F 29.97 in SW 1.2 mph 2.3 mph 69 % 0.00 in
21:28 73.4 °F 62.6 °F 29.97 in SSW 0.3 mph 3.0 mph 69 % 0.00 in
21:33 73.3 °F 62.5 °F 29.98 in SW 0.7 mph 2.3 mph 69 % 0.00 in
21:38 73.2 °F 62.4 °F 29.98 in WSW 1.4 mph 3.5 mph 69 % 0.00 in
21:43 73.1 °F 62.3 °F 29.98 in Calm   1.2 mph 69 % 0.00 in
21:53 73.0 °F 62.6 °F 29.98 in Calm     70 % 0.00 in
21:59 73.0 °F 62.2 °F 29.99 in Calm   1.2 mph 69 % 0.00 in
22:04 72.9 °F 63.3 °F 29.99 in Calm     72 % 0.00 in
22:09 72.7 °F 63.1 °F 29.99 in Calm     72 % 0.00 in
22:14 72.6 °F 63.1 °F 29.99 in Calm   1.2 mph 72 % 0.00 in
22:19 72.4 °F 63.3 °F 29.98 in Calm     73 % 0.00 in
22:24 72.2 °F 63.1 °F 29.98 in Calm     73 % 0.00 in
22:29 72.0 °F 62.9 °F 29.98 in Calm     73 % 0.00 in
22:34 71.8 °F 63.1 °F 29.98 in Calm     74 % 0.00 in
22:39 71.7 °F 63.0 °F 29.98 in Calm     74 % 0.00 in
22:44 71.4 °F 62.7 °F 29.97 in Calm     74 % 0.00 in
22:49 71.2 °F 62.5 °F 29.97 in Calm     74 % 0.00 in
22:54 71.1 °F 62.4 °F 29.97 in Calm     74 % 0.00 in
22:59 70.9 °F 63.0 °F 29.97 in Calm     76 % 0.00 in
23:04 70.7 °F 62.8 °F 29.97 in Calm     76 % 0.00 in
23:09 70.4 °F 62.8 °F 29.97 in Calm     77 % 0.00 in
23:16 70.2 °F 63.0 °F 29.97 in Calm     78 % 0.00 in
23:21 70.0 °F 62.8 °F 29.97 in Calm     78 % 0.00 in
23:22 70.0 °F 62.8 °F 29.96 in Calm     78 % 0.00 in
23:25 69.9 °F 63.1 °F 29.97 in Calm     79 % 0.00 in
23:29 69.7 °F 62.5 °F 29.97 in Calm     78 % 0.00 in
23:34 69.6 °F 62.8 °F 29.96 in Calm     79 % 0.00 in
23:40 69.4 °F 63.0 °F 29.96 in Calm     80 % 0.00 in
23:44 69.2 °F 62.4 °F 29.96 in Calm     79 % 0.00 in
23:50 69.1 °F 62.7 °F 29.96 in Calm     80 % 0.00 in
23:55 68.9 °F 62.8 °F 29.96 in Calm     81 % 0.00 in
Crab Meadow Weather
Compliments of Weather Underground - 3 mb

Script developed by  Jim McMurry - jmcmurry@mwt.net Adapted for the template by  Wim van der Kuil - Leuven-Template.eu

Humidity: Humidity is the amount of water vapor in the air. The term "humidity" refers to relative humidity. Relative humidity is defined as the amount of water vapor in a sample of air compared to the maximum amount of water vapor the air can hold at any specific temperature in a form of 0 to 100%. Relative humidity is important in forecasting weather. Humidity indicates the likelihood of precipitation, dew, or fog. High humidity makes people feel hotter outside in the summer because it reduces the effectiveness of sweating to cool the body by preventing the evaporation of perspiration from the skin.